Time;durP1;ratioP1;P1;durP2;ratioP2;P2;SDS_P1;SDS_P2;PMS_P1;PMS_P2;Temp;Humidity;BMP_temperature;BMP_pressure;BME280_temperature;BME280_humidity;BME280_pressure;Samples;Min_cycle;Max_cycle;Signal;HPM_P1;HPM_P2
2021/05/30 15:04:15;;;;;;;;;;;;;;;16.20;53.83;97345.25;5057818;28;19970;-68
2021/05/30 15:06:41;;;;;;;;;;;;;;;16.19;53.80;97342.81;5041051;28;19929;-68
2021/05/30 15:09:08;;;;;;;;;;;;;;;16.27;53.46;97342.69;5040744;28;19933;-69
2021/05/30 15:11:35;;;;;;;;;;;;;;;16.23;53.57;97346.69;5046893;28;19976;-68
2021/05/30 15:14:02;;;;;;;;;;;;;;;16.26;54.17;97348.97;5042287;28;20009;-68
2021/05/30 15:16:29;;;;;;;;;;;;;;;16.40;53.64;97336.75;5042252;28;19925;-69
2021/05/30 15:18:56;;;;;;;;;;;;;;;16.53;53.21;97342.13;5044620;28;19928;-67
2021/05/30 15:21:22;;;;;;;;;;;;;;;16.73;52.46;97330.97;5043869;28;19947;-66
2021/05/30 15:23:49;;;;;;;;;;;;;;;16.70;52.48;97326.91;5044862;28;19960;-69
2021/05/30 15:26:15;;;;;;;;;;;;;;;16.48;53.01;97336.63;5040811;28;20332;-69
2021/05/30 15:28:42;;;;;;;;;;;;;;;16.47;53.23;97322.66;5044423;28;19929;-67
2021/05/30 15:31:08;;;;;;;;;;;;;;;16.54;53.25;97325.34;5042725;28;20384;-70
2021/05/30 15:33:35;;;;;;;;;;;;;;;16.44;53.65;97327.50;5044786;28;19925;-70
2021/05/30 15:36:06;;;;;;;;;;;;;;;16.40;53.87;97323.59;5041792;28;19925;-68
2021/05/30 15:38:33;;;;;;;;;;;;;;;16.41;53.68;97322.63;5043985;28;19932;-70
2021/05/30 15:41:00;;;;;;;;;;;;;;;16.38;53.72;97329.06;5042495;28;19943;-70
2021/05/30 15:43:26;;;;;;;;;;;;;;;16.37;53.70;97335.31;5037482;28;19932;-70
2021/05/30 15:45:53;;;;;;;;;;;;;;;16.35;53.76;97326.00;5043353;28;19925;-70
2021/05/30 15:48:20;;;;;;;;;;;;;;;16.37;53.93;97326.63;5041422;28;19968;-70
2021/05/30 15:53:32;;;;;;;;;;;;;;;16.67;54.13;97325.44;5043790;28;19925;-72
2021/05/30 15:56:03;;;;;;;;;;;;;;;16.59;54.13;97309.00;5041098;28;21287;-73
2021/05/30 15:58:30;;;;;;;;;;;;;;;16.54;53.78;97327.16;5038432;28;19987;-70
2021/05/30 16:00:57;;;;;;;;;;;;;;;16.55;53.68;97324.38;5042544;28;19933;-72
2021/05/30 16:03:23;;;;;;;;;;;;;;;16.47;53.75;97321.88;5054738;28;19983;-72
2021/05/30 16:05:50;;;;;;;;;;;;;;;16.38;53.79;97321.19;5060124;28;19936;-72
2021/05/30 16:08:16;;;;;;;;;;;;;;;16.40;53.57;97320.97;5063950;28;19952;-70
2021/05/30 16:10:43;;;;;;;;;;;;;;;16.29;53.57;97323.13;5062352;28;19932;-69
2021/05/30 16:13:10;;;;;;;;;;;;;;;16.27;54.18;97324.31;5059370;28;19929;-67
2021/05/30 16:15:37;;;;;;;;;;;;;;;16.40;53.69;97327.06;5023680;28;19928;-68
2021/05/30 16:18:04;;;;;;;;;;;;;;;16.35;53.84;97324.19;5047664;28;19925;-68
2021/05/30 16:20:30;;;;;;;;;;;;;;;16.38;53.72;97326.44;5046452;28;19932;-68
2021/05/30 16:22:57;;;;;;;;;;;;;;;16.33;54.12;97322.75;5046677;28;19924;-68
2021/05/30 16:25:23;;;;;;;;;;;;;;;16.31;54.45;97327.38;5048450;28;19933;-68
2021/05/30 16:27:50;;;;;;;;;;;;;;;16.34;53.88;97330.44;5046805;28;19939;-69
2021/05/30 16:30:17;;;;;;;;;;;;;;;16.27;54.49;97333.00;5049556;28;20627;-68
2021/05/30 16:32:43;;;;;;;;;;;;;;;16.22;54.21;97324.06;5053160;28;20694;-68
2021/05/30 16:35:10;;;;;;;;;;;;;;;16.25;54.42;97323.69;5049090;28;19925;-68
2021/05/30 16:37:37;;;;;;;;;;;;;;;16.27;54.77;97332.19;5050248;28;19925;-69
2021/05/30 16:40:04;;;;;;;;;;;;;;;16.21;54.79;97314.56;5048707;28;19975;-68
2021/05/30 16:42:30;;;;;;;;;;;;;;;16.20;54.80;97332.13;5049509;28;19956;-69
2021/05/30 16:44:57;;;;;;;;;;;;;;;16.22;54.80;97324.06;5050230;28;19932;-69
2021/05/30 16:47:24;;;;;;;;;;;;;;;16.20;55.00;97326.88;5048909;28;19936;-69
2021/05/30 16:49:51;;;;;;;;;;;;;;;16.19;54.95;97314.75;5049220;28;20008;-69
2021/05/30 16:52:18;;;;;;;;;;;;;;;16.21;54.63;97327.69;5048912;28;19932;-69
2021/05/30 16:54:44;;;;;;;;;;;;;;;16.21;54.81;97323.28;5050958;28;19924;-68
2021/05/30 16:57:11;;;;;;;;;;;;;;;16.24;54.70;97324.69;5050285;28;20616;-67
2021/05/30 16:59:37;;;;;;;;;;;;;;;16.23;54.79;97323.06;5045756;28;19948;-69
2021/05/30 17:02:04;;;;;;;;;;;;;;;16.18;55.05;97322.81;5048861;28;20361;-66
2021/05/30 17:04:31;;;;;;;;;;;;;;;16.27;54.67;97325.13;5050909;28;19932;-67
2021/05/30 17:06:57;;;;;;;;;;;;;;;16.25;54.79;97321.06;5050489;28;19925;-67
2021/05/30 17:09:24;;;;;;;;;;;;;;;16.24;54.91;97322.06;5049531;28;20007;-67
2021/05/30 17:11:50;;;;;;;;;;;;;;;16.25;54.75;97319.22;5048690;28;19932;-67
2021/05/30 17:14:17;;;;;;;;;;;;;;;16.28;54.41;97318.88;5049483;28;19924;-67
2021/05/30 17:16:44;;;;;;;;;;;;;;;16.25;54.46;97318.44;5043846;28;19929;-67
2021/05/30 17:19:11;;;;;;;;;;;;;;;16.28;54.33;97323.31;5049302;28;19939;-67
2021/05/30 17:21:38;;;;;;;;;;;;;;;16.26;54.33;97317.44;5047284;28;19933;-67
2021/05/30 17:24:06;;;;;;;;;;;;;;;16.25;54.30;97324.50;5044518;28;19944;-67
2021/05/30 17:26:32;;;;;;;;;;;;;;;16.26;54.55;97320.88;5046509;28;21240;-67
2021/05/30 17:28:59;;;;;;;;;;;;;;;16.27;54.46;97316.44;5046762;28;20638;-67
2021/05/30 17:31:25;;;;;;;;;;;;;;;16.25;54.24;97321.06;5043889;28;19975;-67
2021/05/30 17:33:52;;;;;;;;;;;;;;;16.09;54.67;97298.50;5023830;28;19983;-67
2021/05/30 17:36:18;;;;;;;;;;;;;;;16.25;54.44;97318.44;5043743;28;20156;-67
2021/05/30 17:38:46;;;;;;;;;;;;;;;16.24;54.44;97328.13;5045446;28;19932;-67
2021/05/30 17:41:14;;;;;;;;;;;;;;;16.24;54.52;97322.06;5029082;28;20368;-67
2021/05/30 17:43:41;;;;;;;;;;;;;;;16.22;54.48;97322.25;5025244;28;19929;-67
2021/05/30 17:46:11;;;;;;;;;;;;;;;16.22;54.69;97314.38;5027206;28;20364;-67
2021/05/30 17:48:38;;;;;;;;;;;;;;;16.24;54.53;97322.06;5042338;28;20361;-67
2021/05/30 17:51:04;;;;;;;;;;;;;;;16.24;54.36;97324.69;5044518;28;20363;-67
2021/05/30 17:53:32;;;;;;;;;;;;;;;16.23;54.60;97316.00;5043528;28;19936;-67
2021/05/30 17:55:59;;;;;;;;;;;;;;;16.23;54.64;97320.44;5042750;28;20500;-67
2021/05/30 17:58:26;;;;;;;;;;;;;;;16.21;54.65;97319.81;5042680;28;19932;-67
2021/05/30 18:00:53;;;;;;;;;;;;;;;16.22;54.63;97318.81;5044263;28;20363;-67
2021/05/30 18:03:20;;;;;;;;;;;;;;;16.21;54.75;97319.81;5038767;28;19932;-67
2021/05/30 18:06:06;;;;;;;;;;;;;;;16.22;54.48;97326.69;5043072;28;19968;-67
2021/05/30 18:08:33;;;;;;;;;;;;;;;16.23;54.60;97330.94;5044733;28;19933;-67
2021/05/30 18:11:00;;;;;;;;;;;;;;;16.23;54.63;97325.69;5043942;28;19940;-67
2021/05/30 18:13:28;;;;;;;;;;;;;;;16.22;54.77;97327.50;5042740;28;19925;-67
2021/05/30 18:15:55;;;;;;;;;;;;;;;16.20;54.73;97326.06;5023820;28;19940;-67
2021/05/30 18:18:23;;;;;;;;;;;;;;;16.21;54.51;97323.28;5043683;28;20404;-67
2021/05/30 18:20:50;;;;;;;;;;;;;;;16.21;54.76;97320.63;5043647;28;19933;-67
2021/05/30 18:23:17;;;;;;;;;;;;;;;16.22;54.81;97324.06;5042233;28;20595;-67
2021/05/30 18:25:45;;;;;;;;;;;;;;;16.21;54.65;97318.00;5044962;28;20435;-67
2021/05/30 18:28:12;;;;;;;;;;;;;;;16.23;54.61;97320.44;5044923;28;20298;-67
2021/05/30 18:30:40;;;;;;;;;;;;;;;16.23;54.64;97323.06;5028938;28;20359;-67
2021/05/30 18:33:06;;;;;;;;;;;;;;;16.27;54.71;97319.84;5043647;28;20353;-67
2021/05/30 18:35:33;;;;;;;;;;;;;;;16.38;54.05;97322.97;5025211;28;19975;-67
2021/05/30 18:37:59;;;;;;;;;;;;;;;16.41;54.15;97317.38;5023300;28;19933;-67
2021/05/30 18:40:28;;;;;;;;;;;;;;;16.42;54.02;97319.78;5045376;28;20011;-67
2021/05/30 18:42:55;;;;;;;;;;;;;;;16.44;54.01;97322.22;5039993;28;19929;-67
2021/05/30 18:45:24;;;;;;;;;;;;;;;16.45;53.97;97323.88;5042804;28;19987;-67
2021/05/30 18:47:51;;;;;;;;;;;;;;;16.45;54.14;97329.13;5043227;28;19932;-67
2021/05/30 18:50:17;;;;;;;;;;;;;;;16.46;54.01;97328.91;5037772;28;19929;-66
2021/05/30 18:52:44;;;;;;;;;;;;;;;16.45;54.03;97324.69;5044959;28;19935;-66
2021/05/30 18:55:11;;;;;;;;;;;;;;;16.46;53.80;97331.53;5039772;28;19925;-66
2021/05/30 18:57:41;;;;;;;;;;;;;;;16.46;54.14;97334.16;5044706;28;19932;-66
2021/05/30 19:00:10;;;;;;;;;;;;;;;16.46;53.98;97334.16;5041696;28;20765;-66
2021/05/30 19:02:36;;;;;;;;;;;;;;;16.47;54.03;97327.94;5040715;28;19928;-66
2021/05/30 19:05:04;;;;;;;;;;;;;;;16.47;54.13;97327.94;5041273;28;20412;-66
2021/05/30 19:07:31;;;;;;;;;;;;;;;16.47;53.96;97333.19;5041518;28;20648;-66
2021/05/30 19:09:57;;;;;;;;;;;;;;;16.47;53.96;97333.19;5037797;28;19932;-67
2021/05/30 19:12:24;;;;;;;;;;;;;;;16.49;53.94;97333.00;5042301;28;20185;-67
2021/05/30 19:14:51;;;;;;;;;;;;;;;16.47;54.08;97338.44;5040777;28;20467;-66
2021/05/30 19:17:18;;;;;;;;;;;;;;;16.48;53.88;97341.88;5019701;28;20513;-66
2021/05/30 19:19:45;;;;;;;;;;;;;;;16.47;54.05;97343.69;5023407;28;20396;-67
2021/05/30 19:22:11;;;;;;;;;;;;;;;16.49;54.07;97335.63;5040507;28;20456;-67
2021/05/30 19:24:39;;;;;;;;;;;;;;;16.48;53.93;97340.06;5044684;28;19938;-67
2021/05/30 19:27:06;;;;;;;;;;;;;;;16.48;54.03;97334.78;5046397;28;20361;-66
2021/05/30 19:29:32;;;;;;;;;;;;;;;16.49;54.02;97346.16;5045773;28;20332;-66
2021/05/30 19:31:59;;;;;;;;;;;;;;;16.49;54.07;97341.69;5037121;28;19935;-67
2021/05/30 19:34:25;;;;;;;;;;;;;;;16.48;54.20;97340.06;5041405;28;19929;-67
2021/05/30 19:36:55;;;;;;;;;;;;;;;16.48;54.02;97353.19;5040846;28;19940;-67
2021/05/30 19:39:21;;;;;;;;;;;;;;;16.48;54.13;97350.56;5045789;28;19929;-67
2021/05/30 19:41:48;;;;;;;;;;;;;;;16.49;54.02;97349.56;5042568;28;19928;-67
2021/05/30 19:44:14;;;;;;;;;;;;;;;16.49;54.04;97356.66;5023392;28;19925;-67
2021/05/30 19:46:41;;;;;;;;;;;;;;;16.49;54.02;97356.66;5040783;28;19928;-67
2021/05/30 19:49:07;;;;;;;;;;;;;;;16.49;54.08;97361.91;5042608;28;19936;-67
2021/05/30 19:51:34;;;;;;;;;;;;;;;16.48;54.17;97366.34;5040494;28;20012;-66
2021/05/30 19:54:00;;;;;;;;;;;;;;;16.48;53.97;97361.06;5046935;28;19933;-66
2021/05/30 19:56:27;;;;;;;;;;;;;;;16.49;54.08;97365.34;5046147;28;19925;-66
2021/05/30 19:58:53;;;;;;;;;;;;;;;16.51;53.91;97359.06;5047173;28;20331;-66
2021/05/30 20:01:20;;;;;;;;;;;;;;;16.51;53.81;97362.53;5044980;28;19932;-66
2021/05/30 20:03:46;;;;;;;;;;;;;;;16.52;53.93;97371.22;5045717;28;19944;-66
2021/05/30 20:06:13;;;;;;;;;;;;;;;16.49;53.93;97365.34;5044457;28;19939;-66
2021/05/30 20:08:40;;;;;;;;;;;;;;;16.50;53.93;97368.78;5048862;28;19928;-66
2021/05/30 20:11:08;;;;;;;;;;;;;;;16.50;53.90;97366.16;5044679;28;19933;-66
2021/05/30 20:13:37;;;;;;;;;;;;;;;16.52;54.01;97376.47;5045128;28;19933;-66
2021/05/30 20:16:05;;;;;;;;;;;;;;;16.49;53.93;97370.59;5044886;28;19928;-67
2021/05/30 20:18:32;;;;;;;;;;;;;;;16.49;54.01;97373.22;5043115;28;21442;-67
2021/05/30 20:20:58;;;;;;;;;;;;;;;16.49;53.90;97369.78;5044838;28;19932;-67
2021/05/30 20:23:25;;;;;;;;;;;;;;;16.49;53.95;97375.84;5045826;28;19928;-66
2021/05/30 20:25:53;;;;;;;;;;;;;;;16.50;53.82;97371.41;5048565;28;20373;-67
2021/05/30 20:28:23;;;;;;;;;;;;;;;16.51;53.92;97377.47;5042010;28;19933;-67
2021/05/30 20:30:50;;;;;;;;;;;;;;;16.49;53.67;97377.69;5046969;28;19925;-66
2021/05/30 20:33:17;;;;;;;;;;;;;;;16.51;54.00;97380.09;5049197;28;20339;-66
2021/05/30 20:35:44;;;;;;;;;;;;;;;16.51;53.94;97380.94;5047447;28;19940;-66
2021/05/30 20:38:10;;;;;;;;;;;;;;;16.51;53.95;97372.22;5048787;28;19929;-66
2021/05/30 20:40:37;;;;;;;;;;;;;;;16.51;53.86;97378.31;5045057;28;19924;-66
2021/05/30 20:43:05;;;;;;;;;;;;;;;16.52;53.81;97376.47;5046749;28;20308;-67
2021/05/30 20:45:32;;;;;;;;;;;;;;;16.52;53.88;97369.41;5047067;28;19925;-68
2021/05/30 20:47:59;;;;;;;;;;;;;;;16.52;53.76;97372.03;5043420;28;19974;-68
2021/05/30 20:50:26;;;;;;;;;;;;;;;16.52;53.91;97372.03;5045212;28;19928;-69
2021/05/30 20:52:52;;;;;;;;;;;;;;;16.52;53.96;97382.53;5028660;28;19925;-66
2021/05/30 20:55:19;;;;;;;;;;;;;;;16.51;53.84;97380.09;5047072;28;19932;-67
2021/05/30 20:57:46;;;;;;;;;;;;;;;16.51;53.86;97374.84;5043856;28;19929;-67
2021/05/30 21:00:15;;;;;;;;;;;;;;;16.52;53.77;97379.91;5048073;28;19991;-67
2021/05/30 21:02:41;;;;;;;;;;;;;;;16.52;53.86;97373.84;5045657;28;19986;-67
2021/05/30 21:05:08;;;;;;;;;;;;;;;16.52;53.82;97379.09;5049777;28;20388;-67
2021/05/30 21:07:35;;;;;;;;;;;;;;;16.51;53.90;97366.97;5048799;28;19994;-67
2021/05/30 21:10:06;;;;;;;;;;;;;;;16.51;53.84;97369.59;5047349;28;19933;-67
2021/05/30 21:12:32;;;;;;;;;;;;;;;16.52;53.75;97368.59;5047826;28;19925;-67
2021/05/30 21:14:59;;;;;;;;;;;;;;;16.53;53.74;97372.84;5048112;28;19932;-67
2021/05/30 21:17:25;;;;;;;;;;;;;;;16.52;53.68;97368.59;5049987;28;20024;-67
2021/05/30 21:19:52;;;;;;;;;;;;;;;16.51;53.64;97369.59;5051955;28;19932;-67
2021/05/30 21:22:18;;;;;;;;;;;;;;;16.51;53.87;97374.84;5051299;28;20432;-67
2021/05/30 21:24:45;;;;;;;;;;;;;;;16.51;53.90;97364.31;5048306;28;19932;-67
2021/05/30 21:27:11;;;;;;;;;;;;;;;16.51;53.79;97372.22;5051609;28;19935;-67
2021/05/30 21:29:38;;;;;;;;;;;;;;;16.52;53.84;97376.47;5048160;28;19924;-67
2021/05/30 21:32:04;;;;;;;;;;;;;;;16.52;53.92;97365.97;5049181;28;19928;-67
2021/05/30 21:34:31;;;;;;;;;;;;;;;16.52;53.86;97371.22;5047382;28;19929;-67
2021/05/30 21:36:57;;;;;;;;;;;;;;;16.51;53.89;97370.41;5048232;28;19932;-67
2021/05/30 21:39:24;;;;;;;;;;;;;;;16.52;53.72;97369.41;5051474;28;19928;-67
2021/05/30 21:41:50;;;;;;;;;;;;;;;16.52;53.77;97371.22;5047879;28;19932;-67
2021/05/30 21:44:17;;;;;;;;;;;;;;;16.51;54.06;97372.22;5048333;28;19925;-67
2021/05/30 21:46:43;;;;;;;;;;;;;;;16.51;54.02;97374.84;5046653;28;20764;-67
2021/05/30 21:49:10;;;;;;;;;;;;;;;16.52;53.84;97373.84;5049258;28;19925;-67
2021/05/30 21:51:36;;;;;;;;;;;;;;;16.52;54.01;97371.22;5047134;28;19935;-67
2021/05/30 21:54:03;;;;;;;;;;;;;;;16.50;54.14;97371.41;5045149;28;19940;-67
2021/05/30 21:56:29;;;;;;;;;;;;;;;16.50;54.10;97374.03;5048149;28;20010;-67
2021/05/30 21:58:57;;;;;;;;;;;;;;;16.51;53.93;97369.59;5048616;28;19931;-67
2021/05/30 22:01:23;;;;;;;;;;;;;;;16.49;54.13;97375.84;5048406;28;20686;-67
2021/05/30 22:03:50;;;;;;;;;;;;;;;16.51;54.22;97377.47;5047574;28;19956;-67
2021/05/30 22:06:16;;;;;;;;;;;;;;;16.51;54.15;97372.22;5047810;28;19925;-67
2021/05/30 22:08:43;;;;;;;;;;;;;;;16.51;53.76;97378.31;5031695;28;19929;-67
2021/05/30 22:11:09;;;;;;;;;;;;;;;16.52;54.05;97374.66;5046222;28;19925;-67
2021/05/30 22:13:36;;;;;;;;;;;;;;;16.52;54.00;97377.28;5045033;28;19932;-67
2021/05/30 22:16:05;;;;;;;;;;;;;;;16.53;53.80;97373.66;5048305;28;19932;-67
2021/05/30 22:21:16;;;;;;;;;;;;;;;16.52;54.04;97372.03;5044361;28;19925;-67
2021/05/30 22:23:43;;;;;;;;;;;;;;;16.52;54.06;97371.22;5046429;28;20304;-67
2021/05/30 22:26:09;;;;;;;;;;;;;;;16.51;53.86;97377.47;5047411;28;19937;-67
2021/05/30 22:28:36;;;;;;;;;;;;;;;16.52;53.89;97371.22;5047955;28;19970;-67
2021/05/30 22:31:02;;;;;;;;;;;;;;;16.52;53.93;97371.22;5046882;28;19925;-67
2021/05/30 22:33:29;;;;;;;;;;;;;;;16.52;53.74;97372.03;5048494;28;19956;-67
2021/05/30 22:35:55;;;;;;;;;;;;;;;16.51;54.00;97369.59;5048935;28;20339;-67
2021/05/30 22:38:21;;;;;;;;;;;;;;;16.52;53.74;97366.78;5050361;28;19936;-67
2021/05/30 22:40:48;;;;;;;;;;;;;;;16.52;53.65;97363.34;5046478;28;19935;-67
2021/05/30 22:43:14;;;;;;;;;;;;;;;16.52;53.96;97363.34;5027823;28;20010;-67
2021/05/30 22:45:41;;;;;;;;;;;;;;;16.53;53.78;97367.59;5045548;28;19987;-67
2021/05/30 22:48:07;;;;;;;;;;;;;;;16.52;53.65;97365.97;5046266;28;19971;-67
2021/05/30 22:50:34;;;;;;;;;;;;;;;16.52;53.75;97363.34;5028926;28;19924;-67
2021/05/30 22:53:00;;;;;;;;;;;;;;;16.51;53.74;97365.16;5047054;28;20603;-67
2021/05/30 22:55:26;;;;;;;;;;;;;;;16.52;53.63;97365.97;5047733;28;19952;-67
2021/05/30 22:57:55;;;;;;;;;;;;;;;16.52;53.66;97361.53;5046688;28;20510;-67
2021/05/30 23:00:24;;;;;;;;;;;;;;;16.51;53.48;97359.06;5045417;28;19929;-67
2021/05/30 23:02:51;;;;;;;;;;;;;;;16.52;53.38;97360.72;5047395;28;19932;-67
2021/05/30 23:05:17;;;;;;;;;;;;;;;16.51;53.46;97359.91;5046995;28;20316;-67
2021/05/30 23:07:44;;;;;;;;;;;;;;;16.49;53.58;97362.72;5047723;28;19928;-67
2021/05/30 23:10:13;;;;;;;;;;;;;;;16.48;53.86;97361.06;5045250;28;19925;-67
2021/05/30 23:12:43;;;;;;;;;;;;;;;16.49;53.63;97354.84;5044945;28;19924;-67
2021/05/30 23:15:11;;;;;;;;;;;;;;;16.49;53.46;97357.47;5029061;28;19951;-67
2021/05/30 23:17:38;;;;;;;;;;;;;;;16.49;53.46;97352.19;5047336;28;19924;-67
2021/05/30 23:20:06;;;;;;;;;;;;;;;16.49;53.58;97357.47;5044386;28;19987;-67
2021/05/30 23:22:34;;;;;;;;;;;;;;;16.48;53.38;97355.00;5046270;28;19925;-67
2021/05/30 23:25:00;;;;;;;;;;;;;;;16.48;53.56;97353.19;5049000;28;19929;-67
2021/05/30 23:27:27;;;;;;;;;;;;;;;16.48;53.25;97355.81;5047598;28;19925;-67
2021/05/30 23:29:53;;;;;;;;;;;;;;;16.48;52.54;97345.31;5048453;28;19933;-67
2021/05/30 23:32:20;;;;;;;;;;;;;;;16.48;53.10;97342.69;5050245;28;19928;-67
2021/05/30 23:34:48;;;;;;;;;;;;;;;16.48;53.44;97342.69;5049633;28;19933;-67
2021/05/30 23:37:15;;;;;;;;;;;;;;;16.48;52.79;97334.00;5049993;28;19925;-67
2021/05/30 23:39:41;;;;;;;;;;;;;;;16.48;52.82;97334.00;5051325;28;20003;-67
2021/05/30 23:42:08;;;;;;;;;;;;;;;16.46;53.21;97334.16;5049719;28;19933;-67
2021/05/30 23:44:34;;;;;;;;;;;;;;;16.48;53.29;97334.00;5051357;28;20366;-67
2021/05/30 23:47:01;;;;;;;;;;;;;;;16.47;52.92;97341.06;5051084;28;19991;-67
2021/05/30 23:49:27;;;;;;;;;;;;;;;16.48;53.07;97334.00;5050459;28;19928;-67
2021/05/30 23:51:54;;;;;;;;;;;;;;;16.48;53.29;97340.06;5049991;28;20638;-67
2021/05/30 23:54:20;;;;;;;;;;;;;;;16.46;52.80;97336.81;5051650;28;19928;-67
2021/05/30 23:56:47;;;;;;;;;;;;;;;16.45;52.70;97332.56;5048016;28;19951;-67
2021/05/30 23:59:13;;;;;;;;;;;;;;;16.46;53.04;97331.53;5029850;28;19931;-67
